Erin, Tennessee
Current Conditions -  °F | °C
As of 2:52 PM on Thursday 27 Nov 2014 (Local Time) from KCKV Reporting Station
Overcast Overcast  
Wind Chill: 24°   Ceiling: 3100
Heat Index: 34°   Visibility: 10mi
Dew Point: 21°   Wind: 16mph
Humidity: 59%   Direction: 300°WNW
Pressure: 30.45"   Gusts: NA
Location:  36.32°N, 87.69°W
Report Text: KCKV 272052Z AUTO 30014KT 10SM OVC031 01/M06 A3045 RMK AO2 SLP315 T00111061 53002
Loading
Personal Weather Stations






























Interactive Weather Map New forecast layout! Learn more

10-Day Weather Forecast

Advertisements
Track Severe Weather on mobile